Item Display Status Humidity-temperature Sensor

Elevation Above Sea Level: 3 m

 

Deployed Sensor

  • Serial Number: 60594400
  • NDBC Property Number: 34263
  • Start Date: 5/15/2012 (00:21:00 Z)
  • End Date: 10/16/2013 (19:17:12 Z)
Relative Humidity [%]     6 entries per hour
Showing data from 10/6/2013 (16:40:00 Z) to 10/5/2013 (00:00:01 Z)
Previous Next [ Day | 3-Days | 7-Days ]
First Last
Prev [ Day | 3-Days | 7-Days ] Next
First Last

Start Time:     :
End Time:     :     
Time (in GMT) :00 :50 :40 :30 :20 :10
Previous Next [ Day | 3-Days | 7-Days ]
First Last
Prev [ Day | 3-Days | 7-Days ] Next
First Last


123 => good data
MM => data is determined as missing
-- => data not received/configured
Back to Top Back to Top
10/6/2013 17:00 to 16:10 -- -- 72.27 73.24 73.41 74.67
10/6/2013 16:00 to 15:10 73.80 74.94 79.62 82.68 83.90 81.40
10/6/2013 15:00 to 14:10 76.46 74.46 74.69 75.25 74.36 74.30
10/6/2013 14:00 to 13:10 72.85 74.61 73.08 73.41 73.41 73.12
10/6/2013 13:00 to 12:10 72.46 73.72 73.41 72.91 73.22 73.97
10/6/2013 12:00 to 11:10 73.49 73.74 71.82 72.02 71.53 71.14
10/6/2013 11:00 to 10:10 69.96 70.72 71.51 74.21 72.58 73.55
10/6/2013 10:00 to 9:10 70.89 69.46 70.12 72.48 74.61 72.58
10/6/2013 09:00 to 8:10 73.37 72.23 73.61 73.68 73.94 75.29
10/6/2013 08:00 to 7:10 76.22 76.79 77.39 77.64 75.89 73.30
10/6/2013 07:00 to 6:10 72.07 73.18 72.79 73.10 73.76 74.94
10/6/2013 06:00 to 5:10 75.02 74.50 74.07 72.64 72.52 71.78
10/6/2013 05:00 to 4:10 70.89 71.22 70.87 71.34 70.15 70.97
10/6/2013 04:00 to 3:10 72.13 72.99 72.25 72.21 74.19 74.50
10/6/2013 03:00 to 2:10 75.39 77.50 77.91 71.36 74.65 75.53
10/6/2013 02:00 to 1:10 76.86 78.18 79.83 79.62 80.45 78.72
10/6/2013 01:00 to 0:10 70.10 70.72 70.15 70.66 71.18 70.54
10/6/2013 00:00 to 23:10 71.38 71.36 71.94 71.43 72.05 71.43
10/5/2013 23:00 to 22:10 71.24 71.86 70.85 70.87 70.10 69.28
10/5/2013 22:00 to 21:10 69.32 69.67 69.51 69.67 70.12 69.57
10/5/2013 21:00 to 20:10 68.93 69.84 69.09 70.64 69.84 70.08
10/5/2013 20:00 to 19:10 69.32 69.59 70.74 70.37 69.34 70.06
10/5/2013 19:00 to 18:10 70.66 69.55 68.86 69.81 69.57 69.11
10/5/2013 18:00 to 17:10 68.78 71.38 72.35 71.07 71.40 69.94
10/5/2013 17:00 to 16:10 69.40 71.69 72.02 73.68 74.07 75.23
10/5/2013 16:00 to 15:10 76.07 74.85 74.46 75.14 74.56 75.29
10/5/2013 15:00 to 14:10 75.70 74.69 74.42 74.46 74.21 74.56
10/5/2013 14:00 to 13:10 73.49 73.72 72.97 72.19 73.12 73.12
10/5/2013 13:00 to 12:10 72.95 73.20 72.99 71.80 72.17 72.19
10/5/2013 12:00 to 11:10 72.05 71.14 70.60 70.31 70.35 70.56
10/5/2013 11:00 to 10:10 69.98 70.21 69.90 69.94 70.66 68.35
10/5/2013 10:00 to 9:10 69.69 71.74 70.56 69.40 70.19 69.55
10/5/2013 09:00 to 8:10 69.61 69.46 69.67 69.42 68.82 70.31
10/5/2013 08:00 to 7:10 71.38 71.45 71.14 70.43 69.67 69.79
10/5/2013 07:00 to 6:10 70.33 68.62 68.97 70.12 68.80 68.95
10/5/2013 06:00 to 5:10 69.32 67.75 67.58 66.90 68.31 68.29
10/5/2013 05:00 to 4:10 67.32 67.05 66.30 65.75 66.04 66.53
10/5/2013 04:00 to 3:10 66.49 65.79 65.42 65.29 66.37 65.21
10/5/2013 03:00 to 2:10 65.15 65.79 66.68 66.99 68.64 68.91
10/5/2013 02:00 to 1:10 67.85 68.31 67.21 66.70 65.58 67.40
10/5/2013 01:00 to 0:10 69.15 68.04 69.57 69.98 69.61 69.36

 

 

 

Air Temperature [°C]     6 entries per hour
Showing data from 10/6/2013 (16:40:00 Z) to 10/5/2013 (00:00:01 Z)
Previous Next [ Day | 3-Days | 7-Days ]
First Last
Prev [ Day | 3-Days | 7-Days ] Next
First Last

Start Time:     :
End Time:     :     
Time (in GMT) :00 :50 :40 :30 :20 :10
Previous Next [ Day | 3-Days | 7-Days ]
First Last
Prev [ Day | 3-Days | 7-Days ] Next
First Last


123 => good data
MM => data is determined as missing
-- => data not received/configured
Back to Top Back to Top
10/6/2013 17:00 to 16:10 -- -- 27.56 27.53 27.52 27.54
10/6/2013 16:00 to 15:10 27.40 27.21 26.59 26.02 25.73 26.04
10/6/2013 15:00 to 14:10 27.55 27.49 27.44 27.52 27.52 27.60
10/6/2013 14:00 to 13:10 27.43 27.55 27.50 27.53 27.51 27.48
10/6/2013 13:00 to 12:10 27.51 27.61 27.61 27.61 27.55 27.56
10/6/2013 12:00 to 11:10 27.61 27.72 27.77 27.75 27.84 27.83
10/6/2013 11:00 to 10:10 27.76 27.76 27.73 27.91 27.83 27.91
10/6/2013 10:00 to 9:10 27.91 27.82 27.65 27.51 27.49 27.89
10/6/2013 09:00 to 8:10 27.92 27.83 27.80 27.80 27.68 27.50
10/6/2013 08:00 to 7:10 27.21 27.11 27.01 26.88 27.59 27.92
10/6/2013 07:00 to 6:10 27.80 27.74 27.73 27.76 27.68 27.70
10/6/2013 06:00 to 5:10 27.74 27.75 27.79 27.82 27.88 27.94
10/6/2013 05:00 to 4:10 28.07 28.08 28.17 28.02 28.20 27.98
10/6/2013 04:00 to 3:10 28.06 27.96 28.15 28.06 27.73 27.63
10/6/2013 03:00 to 2:10 27.47 27.21 27.49 27.96 27.63 27.41
10/6/2013 02:00 to 1:10 27.22 27.14 27.00 27.05 26.99 27.41
10/6/2013 01:00 to 0:10 27.97 28.07 27.96 27.88 27.79 27.75
10/6/2013 00:00 to 23:10 27.70 27.74 27.85 27.76 27.79 27.77
10/5/2013 23:00 to 22:10 27.70 27.82 27.82 27.81 27.75 27.78
10/5/2013 22:00 to 21:10 27.76 27.83 27.79 27.71 27.79 27.78
10/5/2013 21:00 to 20:10 27.85 27.90 27.76 27.77 27.85 27.82
10/5/2013 20:00 to 19:10 27.77 27.86 27.84 27.88 27.84 27.86
10/5/2013 19:00 to 18:10 27.78 27.84 27.78 27.73 27.85 27.80
10/5/2013 18:00 to 17:10 27.57 27.50 27.47 27.44 27.48 27.50
10/5/2013 17:00 to 16:10 27.38 27.50 27.36 27.38 27.25 27.24
10/5/2013 16:00 to 15:10 27.40 27.31 27.34 27.27 27.21 27.21
10/5/2013 15:00 to 14:10 27.36 27.20 27.17 27.19 27.15 27.21
10/5/2013 14:00 to 13:10 27.16 27.19 27.15 27.17 27.20 27.21
10/5/2013 13:00 to 12:10 27.21 27.15 27.19 27.18 27.21 27.24
10/5/2013 12:00 to 11:10 27.31 27.26 27.28 27.32 27.32 27.41
10/5/2013 11:00 to 10:10 27.28 27.29 27.32 27.36 27.50 27.35
10/5/2013 10:00 to 9:10 27.34 27.44 27.42 27.39 27.34 27.37
10/5/2013 09:00 to 8:10 27.40 27.40 27.38 27.34 27.31 27.25
10/5/2013 08:00 to 7:10 27.26 27.25 27.37 27.32 27.31 27.33
10/5/2013 07:00 to 6:10 27.39 27.27 27.25 27.38 27.28 27.32
10/5/2013 06:00 to 5:10 27.47 27.37 27.35 27.32 27.53 27.67
10/5/2013 05:00 to 4:10 27.63 27.99 28.08 28.18 28.19 28.24
10/5/2013 04:00 to 3:10 28.20 28.11 28.12 28.05 28.05 28.01
10/5/2013 03:00 to 2:10 27.96 27.93 27.83 27.79 27.84 27.87
10/5/2013 02:00 to 1:10 27.82 27.91 27.81 27.83 27.71 27.69
10/5/2013 01:00 to 0:10 27.72 27.72 27.66 27.69 27.69 27.66